createdAt,value
2019-06-26T00:00:12.001Z,85.40
2019-06-26T00:02:42.598Z,85.30
2019-06-26T00:05:12.837Z,85.20
2019-06-26T00:07:43.351Z,85.60
2019-06-26T00:10:14.634Z,86.10
2019-06-26T00:12:44.925Z,85.70
2019-06-26T00:15:16.102Z,86.40
2019-06-26T00:17:46.478Z,86.40
2019-06-26T00:20:16.709Z,86.60
2019-06-26T00:22:46.859Z,86.50
2019-06-26T00:25:16.977Z,86.40
2019-06-26T00:27:47.116Z,86.40
2019-06-26T00:30:17.849Z,86.40
2019-06-26T00:32:47.986Z,86.40
2019-06-26T00:35:18.604Z,86.90
2019-06-26T00:37:48.894Z,86.90
2019-06-26T00:40:19.245Z,86.90
2019-06-26T00:42:49.432Z,86.70
2019-06-26T00:45:19.576Z,86.70
2019-06-26T00:47:49.664Z,86.70
2019-06-26T00:50:19.842Z,86.70
2019-06-26T00:52:49.984Z,86.60
2019-06-26T00:55:20.001Z,86.60
2019-06-26T00:57:50.876Z,86.60
2019-06-26T01:00:26.836Z,86.60
2019-06-26T01:02:57.267Z,86.60
2019-06-26T01:05:28.406Z,86.50
2019-06-26T01:07:58.432Z,86.60
2019-06-26T01:10:28.484Z,86.80
2019-06-26T01:12:58.656Z,86.30
2019-06-26T01:15:28.955Z,86.80
2019-06-26T01:18:00.127Z,87.00
2019-06-26T01:20:30.494Z,87.00
2019-06-26T01:23:02.155Z,86.50
2019-06-26T01:25:32.346Z,87.80
2019-06-26T01:28:02.656Z,86.90
2019-06-26T01:30:33.722Z,86.90
2019-06-26T01:33:03.870Z,86.80
2019-06-26T01:35:33.983Z,86.70
2019-06-26T01:38:04.361Z,86.50
2019-06-26T01:40:34.480Z,86.30
2019-06-26T01:43:04.508Z,86.40
2019-06-26T01:45:34.609Z,86.30
2019-06-26T01:48:04.875Z,85.10
2019-06-26T01:50:34.986Z,85.40
2019-06-26T01:53:05.336Z,84.10
2019-06-26T01:55:35.403Z,84.50
2019-06-26T01:58:05.779Z,84.20
2019-06-26T02:00:35.892Z,83.80
2019-06-26T02:03:05.944Z,84.40
2019-06-26T02:05:36.386Z,84.40
2019-06-26T02:08:06.451Z,84.30
2019-06-26T02:10:36.962Z,84.60
2019-06-26T02:13:07.090Z,84.80
2019-06-26T02:15:37.174Z,84.90
2019-06-26T02:18:27.624Z,84.80
2019-06-26T02:20:57.742Z,85.00
2019-06-26T02:23:27.839Z,85.20
2019-06-26T02:25:57.958Z,85.40
2019-06-26T02:28:27.995Z,85.50
2019-06-26T02:30:58.599Z,85.60
2019-06-26T02:33:28.699Z,85.60
2019-06-26T02:35:58.820Z,83.70
2019-06-26T02:38:28.858Z,85.20
2019-06-26T02:40:58.854Z,85.80
2019-06-26T02:43:29.503Z,86.10
2019-06-26T02:45:59.630Z,85.80
2019-06-26T02:48:30.381Z,86.40
2019-06-26T02:51:00.617Z,86.50
2019-06-26T02:53:31.708Z,86.30
2019-06-26T02:56:01.757Z,86.90
2019-06-26T02:58:31.840Z,87.10
2019-06-26T03:01:02.683Z,87.30
2019-06-26T03:03:33.116Z,87.30
2019-06-26T03:06:03.239Z,87.60
2019-06-26T03:08:35.160Z,87.80
2019-06-26T03:11:05.308Z,87.60
2019-06-26T03:13:35.296Z,88.20
2019-06-26T03:16:05.413Z,88.20
2019-06-26T03:18:35.447Z,88.40
2019-06-26T03:21:05.673Z,88.60
2019-06-26T03:23:35.927Z,88.70
2019-06-26T03:26:12.264Z,88.40
2019-06-26T03:28:42.619Z,89.00
2019-06-26T03:33:42.180Z,88.80
2019-06-26T03:36:12.218Z,89.20
2019-06-26T03:38:42.226Z,89.80
2019-06-26T03:41:12.587Z,89.30
2019-06-26T03:43:42.667Z,89.50
2019-06-26T03:46:12.659Z,90.00
2019-06-26T03:48:43.992Z,90.10
2019-06-26T03:51:14.300Z,89.80
2019-06-26T03:53:44.390Z,89.20
2019-06-26T03:56:14.524Z,89.40
2019-06-26T03:58:44.962Z,89.90
2019-06-26T04:01:15.053Z,89.30
2019-06-26T04:03:45.408Z,89.90
2019-06-26T04:06:15.536Z,90.00
2019-06-26T04:08:45.948Z,90.00
2019-06-26T04:11:16.946Z,90.00
2019-06-26T04:13:47.471Z,89.80
2019-06-26T04:16:17.583Z,89.00
2019-06-26T04:18:47.825Z,88.90
2019-06-26T04:21:17.835Z,89.10
2019-06-26T04:23:48.006Z,89.70
2019-06-26T04:26:18.404Z,89.50
2019-06-26T04:31:17.850Z,88.50
2019-06-26T04:36:18.650Z,88.00
2019-06-26T04:38:49.295Z,88.30
2019-06-26T04:41:19.468Z,88.30
2019-06-26T04:43:51.116Z,88.20
2019-06-26T04:46:21.208Z,87.50
2019-06-26T04:48:51.456Z,86.00
2019-06-26T04:51:21.700Z,85.70
2019-06-26T04:56:24.509Z,84.80
2019-06-26T04:58:55.100Z,85.40
2019-06-26T05:01:25.509Z,84.20
2019-06-26T05:03:55.930Z,84.60
2019-06-26T05:06:33.245Z,83.50
2019-06-26T05:09:06.299Z,84.10
2019-06-26T05:11:38.832Z,83.10
2019-06-26T05:14:12.536Z,83.00
2019-06-26T05:16:44.798Z,81.10
2019-06-26T05:19:15.816Z,82.90
2019-06-26T05:21:46.455Z,83.60
2019-06-26T05:24:17.012Z,82.60
2019-06-26T05:26:47.169Z,82.60
2019-06-26T05:29:17.442Z,82.20
2019-06-26T05:31:47.821Z,82.00
2019-06-26T05:34:17.948Z,81.80
2019-06-26T05:36:48.164Z,81.90
2019-06-26T05:39:18.277Z,82.20
2019-06-26T05:41:49.219Z,81.50
2019-06-26T05:46:49.922Z,78.60
2019-06-26T05:49:20.657Z,76.30
2019-06-26T05:51:50.843Z,76.80
2019-06-26T05:54:22.556Z,76.60
2019-06-26T05:56:52.653Z,76.10
2019-06-26T05:59:23.130Z,75.80
2019-06-26T06:01:54.206Z,74.30
2019-06-26T06:04:24.755Z,74.90
2019-06-26T06:06:55.158Z,75.10
2019-06-26T06:09:25.662Z,75.40
2019-06-26T06:11:55.764Z,75.20
2019-06-26T06:14:26.275Z,71.50
2019-06-26T06:16:57.457Z,72.40
2019-06-26T06:19:27.720Z,71.10
2019-06-26T06:21:59.481Z,69.30
2019-06-26T06:24:29.755Z,67.20
2019-06-26T06:27:00.134Z,66.30
2019-06-26T06:29:32.273Z,65.20
2019-06-26T06:32:02.584Z,65.90
2019-06-26T06:34:33.043Z,66.30
2019-06-26T06:37:04.477Z,64.80
2019-06-26T06:39:34.639Z,64.50
2019-06-26T06:42:04.934Z,65.10
2019-06-26T06:44:35.739Z,63.80
2019-06-26T06:47:08.918Z,63.90
2019-06-26T06:49:38.423Z,62.80
2019-06-26T06:52:09.214Z,63.80
2019-06-26T06:54:40.441Z,62.50
2019-06-26T06:59:41.484Z,61.10
2019-06-26T07:02:11.883Z,62.50
2019-06-26T07:04:42.069Z,61.50
2019-06-26T07:07:12.504Z,63.80
2019-06-26T07:12:14.459Z,62.50
2019-06-26T07:14:44.800Z,61.70
2019-06-26T07:17:21.017Z,62.30
2019-06-26T07:22:18.011Z,61.00
2019-06-26T07:24:48.580Z,61.20
2019-06-26T07:27:18.781Z,61.70
2019-06-26T07:29:48.928Z,59.40
2019-06-26T07:32:19.354Z,59.90
2019-06-26T07:34:49.941Z,58.80
2019-06-26T07:37:20.154Z,59.10
2019-06-26T07:39:50.640Z,58.20
2019-06-26T07:42:21.361Z,58.40
2019-06-26T07:44:51.966Z,56.90
2019-06-26T07:47:25.168Z,56.50
2019-06-26T07:49:54.851Z,56.90
2019-06-26T07:52:25.097Z,56.60
2019-06-26T07:54:58.853Z,55.70
2019-06-26T07:57:30.795Z,54.40
2019-06-26T08:02:31.146Z,54.30
2019-06-26T08:05:01.691Z,53.00
2019-06-26T08:07:32.075Z,53.30
2019-06-26T08:10:04.414Z,53.70
2019-06-26T08:12:34.448Z,52.80
2019-06-26T08:15:05.203Z,52.90
2019-06-26T08:17:35.773Z,52.80
2019-06-26T08:20:06.556Z,53.90
2019-06-26T08:22:36.827Z,53.20
2019-06-26T08:25:08.898Z,53.60
2019-06-26T08:27:39.147Z,52.90
2019-06-26T08:30:10.068Z,53.40
2019-06-26T08:35:11.382Z,53.80
2019-06-26T08:37:42.219Z,52.60
2019-06-26T08:40:12.346Z,53.60
2019-06-26T08:42:42.526Z,53.20
2019-06-26T08:45:12.757Z,52.20
2019-06-26T08:47:43.049Z,52.40
2019-06-26T08:50:13.878Z,52.60
2019-06-26T08:52:43.961Z,53.00
2019-06-26T08:55:14.340Z,52.50
2019-06-26T08:57:46.001Z,52.00
2019-06-26T09:00:16.850Z,52.00
2019-06-26T09:02:47.330Z,52.30
2019-06-26T09:05:18.173Z,51.70
2019-06-26T09:13:00.286Z,54.70
2019-06-26T09:15:30.946Z,50.60
2019-06-26T09:18:01.001Z,53.30
2019-06-26T09:20:37.627Z,52.30
2019-06-26T09:23:07.945Z,52.30
2019-06-26T09:25:38.209Z,53.60
2019-06-26T09:28:08.375Z,52.80
2019-06-26T09:30:39.093Z,52.80
2019-06-26T09:33:09.502Z,52.40
2019-06-26T09:35:40.224Z,52.50
2019-06-26T09:38:10.654Z,52.50
2019-06-26T09:40:41.372Z,52.30
2019-06-26T09:43:12.306Z,52.30
2019-06-26T09:45:42.615Z,52.40
2019-06-26T09:48:14.595Z,52.30
2019-06-26T09:50:45.111Z,52.20
2019-06-26T09:53:15.497Z,52.20
2019-06-26T09:55:46.094Z,52.10
2019-06-26T09:58:18.978Z,51.80
2019-06-26T10:00:49.221Z,52.00
2019-06-26T10:05:50.738Z,51.40
2019-06-26T10:08:22.211Z,51.30
2019-06-26T10:10:52.880Z,51.00
2019-06-26T10:15:54.085Z,50.50
2019-06-26T10:18:24.322Z,50.40
2019-06-26T10:20:54.880Z,50.30
2019-06-26T10:23:25.119Z,50.60
2019-06-26T10:51:26.657Z,50.20
2019-06-26T10:56:31.560Z,49.40
2019-06-26T11:24:26.837Z,49.60
2019-06-26T11:26:57.227Z,49.30
2019-06-26T11:31:57.135Z,49.30
2019-06-26T11:34:28.607Z,49.50
2019-06-26T11:37:03.930Z,50.10
2019-06-26T11:39:30.781Z,49.50
2019-06-26T11:42:00.995Z,48.70
2019-06-26T11:44:38.486Z,49.50
2019-06-26T11:47:10.582Z,49.00
2019-06-26T11:49:40.777Z,48.70
2019-06-26T11:52:11.198Z,49.30
2019-06-26T11:54:41.428Z,48.30
2019-06-26T11:57:12.233Z,48.10
2019-06-26T11:59:46.403Z,48.20
2019-06-26T12:02:16.812Z,47.90
2019-06-26T12:04:47.697Z,47.90
2019-06-26T12:07:19.005Z,48.10
2019-06-26T12:09:49.321Z,46.80
2019-06-26T12:12:20.421Z,47.10
2019-06-26T12:17:20.483Z,45.20
2019-06-26T12:19:51.020Z,44.60
2019-06-26T12:22:21.762Z,44.80
2019-06-26T12:24:52.007Z,45.10
2019-06-26T12:27:22.165Z,44.30
2019-06-26T12:29:52.244Z,43.50
2019-06-26T12:32:22.940Z,43.40
2019-06-26T12:34:53.730Z,43.40
2019-06-26T12:37:36.975Z,43.00
2019-06-26T12:40:30.926Z,42.70
2019-06-26T12:45:45.875Z,40.70
2019-06-26T12:48:17.742Z,40.10
2019-06-26T12:50:49.801Z,40.40
2019-06-26T12:53:25.625Z,39.10
2019-06-26T12:55:56.279Z,34.20
2019-06-26T12:58:27.756Z,34.00
2019-06-26T13:00:57.990Z,34.70
2019-06-26T13:05:57.782Z,33.30
2019-06-26T13:08:29.278Z,33.20
2019-06-26T13:10:59.527Z,32.30
2019-06-26T13:13:30.859Z,31.80
2019-06-26T13:16:01.424Z,29.80
2019-06-26T13:18:32.073Z,29.20
2019-06-26T13:21:05.058Z,29.40
2019-06-26T13:26:04.722Z,30.10
2019-06-26T13:28:35.226Z,31.00
2019-06-26T13:31:08.470Z,32.60
2019-06-26T13:36:11.241Z,32.20
2019-06-26T13:38:41.487Z,32.30
2019-06-26T13:41:13.071Z,32.30
2019-06-26T13:43:43.424Z,31.40
2019-06-26T13:46:14.377Z,31.50
2019-06-26T13:48:44.718Z,30.90
2019-06-26T13:51:14.966Z,30.40
2019-06-26T13:53:45.218Z,31.80
2019-06-26T13:56:15.671Z,32.10
2019-06-26T13:58:46.526Z,32.80
2019-06-26T14:01:22.903Z,31.10
2019-06-26T14:03:52.026Z,30.80
2019-06-26T14:06:22.310Z,29.70
2019-06-26T14:08:53.944Z,30.10
2019-06-26T14:11:25.326Z,30.60
2019-06-26T14:13:55.954Z,30.00
2019-06-26T14:16:29.698Z,29.90
2019-06-26T14:18:59.927Z,29.50
2019-06-26T14:21:30.662Z,30.00
2019-06-26T14:24:01.405Z,30.40
2019-06-26T14:26:31.624Z,29.90
2019-06-26T14:29:02.901Z,31.30
2019-06-26T14:31:38.746Z,30.20
2019-06-26T14:34:10.816Z,30.70
2019-06-26T14:36:41.522Z,30.60
2019-06-26T14:39:12.497Z,30.30
2019-06-26T14:41:44.724Z,30.00
2019-06-26T14:44:14.806Z,30.00
2019-06-26T14:49:14.568Z,30.00
2019-06-26T14:51:47.652Z,30.20
2019-06-26T14:54:16.907Z,31.80
2019-06-26T14:59:16.596Z,30.90
2019-06-26T15:01:47.631Z,30.90
2019-06-26T15:09:17.473Z,30.00
2019-06-26T15:14:24.770Z,30.20
2019-06-26T15:16:55.065Z,30.10
2019-06-26T15:21:59.644Z,30.00
2019-06-26T15:24:33.976Z,29.90
2019-06-26T15:27:04.112Z,29.80
2019-06-26T15:29:34.449Z,29.70
2019-06-26T15:32:04.997Z,29.20
2019-06-26T15:34:36.057Z,28.70
2019-06-26T15:37:06.501Z,27.60
2019-06-26T15:39:37.919Z,28.40
2019-06-26T15:44:38.618Z,28.60
2019-06-26T15:47:09.142Z,28.20
2019-06-26T15:49:39.346Z,28.10
2019-06-26T15:52:15.189Z,27.90
2019-06-26T15:57:11.574Z,28.00
2019-06-26T16:02:12.519Z,28.30
2019-06-26T16:04:43.090Z,28.20
2019-06-26T16:07:13.261Z,28.00
2019-06-26T16:09:43.783Z,28.80
2019-06-26T16:12:13.946Z,29.10
2019-06-26T16:14:44.491Z,28.70
2019-06-26T16:19:51.246Z,29.00
2019-06-26T16:22:32.586Z,29.00
2019-06-26T16:25:00.634Z,27.70
2019-06-26T16:27:31.155Z,27.80
2019-06-26T16:30:03.534Z,28.50
2019-06-26T16:32:34.032Z,27.90
2019-06-26T16:35:04.554Z,28.00
2019-06-26T16:37:35.217Z,28.30
2019-06-26T16:40:06.183Z,28.50
2019-06-26T16:42:37.489Z,29.10
2019-06-26T16:45:08.165Z,28.90
2019-06-26T16:47:41.600Z,28.30
2019-06-26T16:50:12.618Z,28.20
2019-06-26T16:52:49.191Z,28.40
2019-06-26T16:55:15.412Z,28.90
2019-06-26T16:57:45.544Z,29.40
2019-06-26T17:00:16.604Z,29.70
2019-06-26T17:02:47.024Z,29.30
2019-06-26T17:05:17.688Z,30.00
2019-06-26T17:07:47.942Z,30.50
2019-06-26T17:10:19.033Z,30.80
2019-06-26T17:12:49.643Z,31.60
2019-06-26T17:15:20.533Z,32.10
2019-06-26T17:17:50.761Z,32.50
2019-06-26T17:20:21.453Z,32.60
2019-06-26T17:23:05.217Z,32.80
2019-06-26T17:25:24.148Z,34.00
2019-06-26T17:27:54.915Z,34.20
2019-06-26T17:30:25.331Z,35.10
2019-06-26T17:32:55.839Z,35.70
2019-06-26T17:35:26.118Z,36.40
2019-06-26T17:40:28.383Z,36.30
2019-06-26T17:43:11.705Z,37.00
2019-06-26T17:45:35.572Z,37.00
2019-06-26T17:48:07.046Z,38.20
2019-06-26T17:50:40.843Z,39.10
2019-06-26T17:53:21.407Z,40.20
2019-06-26T17:55:43.844Z,40.40
2019-06-26T17:58:16.161Z,41.70
2019-06-26T18:00:46.293Z,42.80
2019-06-26T18:03:16.645Z,44.40
2019-06-26T18:05:46.869Z,47.00
2019-06-26T18:08:17.402Z,46.20
2019-06-26T18:10:47.595Z,47.50
2019-06-26T18:13:18.008Z,47.30
2019-06-26T18:15:48.843Z,48.40
2019-06-26T18:18:19.099Z,48.60
2019-06-26T18:20:49.576Z,48.50
2019-06-26T18:23:19.732Z,49.10
2019-06-26T18:25:54.329Z,49.30
2019-06-26T18:28:21.750Z,49.90
2019-06-26T18:30:51.831Z,51.40
2019-06-26T18:33:21.865Z,52.30
2019-06-26T18:35:56.955Z,52.30
2019-06-26T18:38:35.208Z,52.80
2019-06-26T18:41:06.637Z,53.30
2019-06-26T18:43:37.119Z,53.90
2019-06-26T18:46:08.195Z,54.30
2019-06-26T18:48:38.655Z,54.90
2019-06-26T18:51:08.928Z,55.20
2019-06-26T18:53:52.716Z,55.30
2019-06-26T18:56:12.358Z,56.50
2019-06-26T18:58:44.544Z,56.90
2019-06-26T19:01:15.503Z,57.50
2019-06-26T19:03:45.931Z,57.00
2019-06-26T19:06:16.921Z,57.70
2019-06-26T19:08:47.822Z,58.20
2019-06-26T19:11:18.044Z,57.80
2019-06-26T19:13:48.430Z,58.20
2019-06-26T19:16:18.577Z,57.90
2019-06-26T19:18:49.011Z,58.00
2019-06-26T19:21:21.422Z,58.50
2019-06-26T19:23:51.602Z,58.70
2019-06-26T19:26:23.867Z,59.40
2019-06-26T19:28:54.015Z,60.10
2019-06-26T19:31:24.279Z,60.20
2019-06-26T19:33:54.375Z,60.70
2019-06-26T19:36:28.413Z,60.80
2019-06-26T19:38:56.792Z,61.30
2019-06-26T19:41:27.458Z,61.60
2019-06-26T19:43:57.714Z,61.30
2019-06-26T19:46:28.359Z,60.80
2019-06-26T19:48:58.723Z,62.40
2019-06-26T19:51:29.157Z,61.80
2019-06-26T19:54:01.572Z,62.80
2019-06-26T19:56:32.208Z,62.80
2019-06-26T19:59:02.362Z,62.80
2019-06-26T20:01:32.767Z,62.90
2019-06-26T20:04:03.153Z,63.40
2019-06-26T20:06:33.753Z,63.90
2019-06-26T20:09:05.250Z,63.20
2019-06-26T20:11:36.269Z,63.00
2019-06-26T20:14:06.459Z,61.90
2019-06-26T20:16:36.874Z,64.00
2019-06-26T20:19:10.690Z,64.20
2019-06-26T20:21:42.169Z,64.00
2019-06-26T20:24:12.251Z,64.40
2019-06-26T20:26:42.402Z,64.40
2019-06-26T20:29:12.684Z,64.30
2019-06-26T20:31:42.852Z,64.40
2019-06-26T20:34:13.031Z,65.00
2019-06-26T20:36:43.480Z,65.10
2019-06-26T20:39:13.660Z,65.20
2019-06-26T20:41:44.555Z,64.40
2019-06-26T20:44:14.810Z,65.10
2019-06-26T20:46:47.894Z,65.00
2019-06-26T20:49:17.904Z,65.60
2019-06-26T20:51:48.371Z,65.50
2019-06-26T20:54:18.587Z,65.60
2019-06-26T20:56:50.039Z,66.30
2019-06-26T20:59:20.153Z,66.10
2019-06-26T21:01:50.709Z,66.80
2019-06-26T21:04:20.803Z,67.20
2019-06-26T21:06:51.192Z,67.50
2019-06-26T21:09:22.367Z,67.80
2019-06-26T21:11:52.487Z,68.00
2019-06-26T21:14:22.687Z,68.30
2019-06-26T21:16:53.202Z,68.50
2019-06-26T21:19:23.609Z,68.90
2019-06-26T21:21:54.912Z,69.00
2019-06-26T21:24:25.493Z,69.70
2019-06-26T21:26:55.913Z,69.50
2019-06-26T21:29:27.780Z,70.30
2019-06-26T21:31:59.567Z,70.50
2019-06-26T21:34:29.763Z,71.50
2019-06-26T21:37:00.900Z,70.80
2019-06-26T21:39:31.376Z,72.00
2019-06-26T21:42:01.470Z,71.30
2019-06-26T21:44:31.940Z,71.60
2019-06-26T21:47:02.118Z,72.20
2019-06-26T21:49:32.196Z,72.20
2019-06-26T21:52:03.800Z,72.70
2019-06-26T21:54:33.954Z,72.60
2019-06-26T21:57:21.820Z,72.40
2019-06-26T22:00:10.575Z,73.40
2019-06-26T22:02:58.303Z,73.40
2019-06-26T22:08:01.803Z,72.70
2019-06-26T22:10:33.671Z,73.60
2019-06-26T22:13:04.621Z,74.20
2019-06-26T22:15:34.933Z,74.40
2019-06-26T22:18:05.172Z,74.40
2019-06-26T22:20:35.502Z,74.30
2019-06-26T22:23:06.158Z,74.80
2019-06-26T22:25:50.198Z,74.40
2019-06-26T22:28:09.768Z,75.00
2019-06-26T22:30:39.959Z,75.40
2019-06-26T22:33:13.439Z,75.40
2019-06-26T22:35:43.951Z,75.00
2019-06-26T22:38:15.178Z,75.00
2019-06-26T22:40:45.408Z,75.60
2019-06-26T22:43:15.759Z,75.90
2019-06-26T22:45:45.879Z,76.20
2019-06-26T22:48:16.084Z,76.50
2019-06-26T22:50:46.346Z,76.70
2019-06-26T22:53:16.534Z,76.10
2019-06-26T22:55:46.660Z,76.70
2019-06-26T22:58:16.852Z,76.30
2019-06-26T23:00:47.926Z,76.90
2019-06-26T23:03:19.490Z,76.80
2019-06-26T23:05:49.607Z,76.80
2019-06-26T23:08:21.623Z,76.30
2019-06-26T23:10:52.223Z,76.30
2019-06-26T23:13:27.542Z,76.70
2019-06-26T23:15:58.144Z,77.10
2019-06-26T23:18:28.304Z,77.20
2019-06-26T23:20:58.972Z,77.90
2019-06-26T23:23:29.373Z,77.10
2019-06-26T23:26:00.181Z,77.60
2019-06-26T23:28:31.459Z,77.70
2019-06-26T23:31:03.132Z,78.00
2019-06-26T23:33:33.521Z,78.60
2019-06-26T23:36:04.130Z,78.70
2019-06-26T23:38:34.627Z,78.30
2019-06-26T23:41:05.037Z,78.90
2019-06-26T23:43:35.142Z,78.70
2019-06-26T23:46:05.209Z,78.70
2019-06-26T23:48:35.258Z,79.50
2019-06-26T23:51:08.039Z,79.00
2019-06-26T23:53:38.951Z,79.90
2019-06-26T23:56:09.113Z,78.80
2019-06-26T23:58:40.770Z,79.50
